createdAt,value
2024-05-09T00:00:39.990Z,101876.81
2024-05-09T00:03:09.000Z,101876.72
2024-05-09T00:05:38.728Z,101882.94
2024-05-09T00:08:06.440Z,101882.78
2024-05-09T00:10:37.550Z,101878.84
2024-05-09T00:13:07.656Z,101877.97
2024-05-09T00:15:36.969Z,101883.03
2024-05-09T00:18:05.299Z,101879.38
2024-05-09T00:20:38.292Z,101871.22
2024-05-09T00:23:09.436Z,101878.44
2024-05-09T00:25:37.644Z,101874.56
2024-05-09T00:28:05.419Z,101877.06
2024-05-09T00:30:35.415Z,101874.06
2024-05-09T00:33:05.889Z,101878.41
2024-05-09T00:35:33.694Z,101875.28
2024-05-09T00:38:01.332Z,101882.34
2024-05-09T00:40:39.089Z,101880.81
2024-05-09T00:43:08.557Z,101883.25
2024-05-09T00:45:36.655Z,101870.81
2024-05-09T00:48:07.094Z,101878.69
2024-05-09T00:50:37.508Z,101872.44
2024-05-09T00:53:10.884Z,101869.03
2024-05-09T00:55:37.823Z,101872.97
2024-05-09T00:58:05.870Z,101870.59
2024-05-09T01:00:38.987Z,101868.91
2024-05-09T01:03:11.668Z,101864.94
2024-05-09T01:05:41.134Z,101863.94
2024-05-09T01:08:09.723Z,101871.69
2024-05-09T01:10:37.355Z,101868.88
2024-05-09T01:13:05.412Z,101872.81
2024-05-09T01:15:33.854Z,101879.44
2024-05-09T01:18:09.580Z,101871.84
2024-05-09T01:20:42.872Z,101871.56
2024-05-09T01:23:14.132Z,101874.84
2024-05-09T01:25:42.655Z,101875.47
2024-05-09T01:28:09.798Z,101882.44
2024-05-09T01:30:37.786Z,101867.41
2024-05-09T01:33:08.540Z,101869.88
2024-05-09T01:35:37.373Z,101868.19
2024-05-09T01:38:05.005Z,101870.00
2024-05-09T01:40:37.633Z,101868.75
2024-05-09T01:43:08.282Z,101871.75
2024-05-09T01:45:35.836Z,101869.88
2024-05-09T01:48:03.175Z,101869.06
2024-05-09T01:53:01.451Z,101867.47
2024-05-09T01:55:28.163Z,101862.00
2024-05-09T01:57:54.749Z,101853.78
2024-05-09T02:00:33.769Z,101860.91
2024-05-09T02:03:08.760Z,101864.28
2024-05-09T02:05:36.578Z,101860.66
2024-05-09T02:08:04.159Z,101866.78
2024-05-09T02:10:32.951Z,101863.28
2024-05-09T02:13:01.188Z,101855.69
2024-05-09T02:15:28.495Z,101856.38
2024-05-09T02:17:55.408Z,101852.84
2024-05-09T02:20:30.324Z,101853.00
2024-05-09T02:23:05.010Z,101850.09
2024-05-09T02:25:32.913Z,101856.13
2024-05-09T02:27:59.712Z,101846.19
2024-05-09T02:30:38.419Z,101856.78
2024-05-09T02:33:09.565Z,101854.97
2024-05-09T02:35:37.602Z,101853.19
2024-05-09T02:38:04.984Z,101857.59
2024-05-09T02:40:37.103Z,101857.44
2024-05-09T02:43:07.676Z,101854.34
2024-05-09T02:45:34.708Z,101852.34
2024-05-09T02:48:02.127Z,101857.63
2024-05-09T02:50:34.775Z,101858.28
2024-05-09T02:53:08.623Z,101859.59
2024-05-09T02:55:37.575Z,101864.16
2024-05-09T02:58:04.732Z,101862.53
2024-05-09T03:00:38.365Z,101861.34
2024-05-09T03:03:10.353Z,101863.66
2024-05-09T03:05:40.871Z,101858.41
2024-05-09T03:08:08.251Z,101857.13
2024-05-09T03:10:37.544Z,101864.03
2024-05-09T03:13:15.400Z,101855.50
2024-05-09T03:15:44.500Z,101852.19
2024-05-09T03:18:12.726Z,101851.72
2024-05-09T03:20:40.086Z,101847.44
2024-05-09T03:23:09.150Z,101856.13
2024-05-09T03:25:36.816Z,101861.69
2024-05-09T03:28:04.320Z,101856.13
2024-05-09T03:30:39.711Z,101858.59
2024-05-09T03:33:12.201Z,101857.78
2024-05-09T03:35:40.855Z,101850.91
2024-05-09T03:38:08.673Z,101849.47
2024-05-09T03:40:35.733Z,101851.56
2024-05-09T03:43:02.403Z,101850.91
2024-05-09T03:45:29.292Z,101851.75
2024-05-09T03:47:56.544Z,101852.72
2024-05-09T03:50:30.065Z,101848.13
2024-05-09T03:53:01.999Z,101858.41
2024-05-09T03:55:29.822Z,101846.84
2024-05-09T03:57:56.953Z,101854.84
2024-05-09T04:00:31.354Z,101854.69
2024-05-09T04:03:06.692Z,101847.34
2024-05-09T04:05:35.401Z,101849.78
2024-05-09T04:08:02.411Z,101848.97
2024-05-09T04:10:33.463Z,101851.59
2024-05-09T04:13:03.140Z,101855.66
2024-05-09T04:15:30.316Z,101849.97
2024-05-09T04:17:57.852Z,101853.88
2024-05-09T04:20:35.557Z,101855.53
2024-05-09T04:23:06.988Z,101856.03
2024-05-09T04:25:34.369Z,101861.25
2024-05-09T04:28:01.264Z,101861.56
2024-05-09T04:30:36.472Z,101863.69
2024-05-09T04:33:07.490Z,101860.25
2024-05-09T04:35:35.574Z,101867.28
2024-05-09T04:38:04.668Z,101872.00
2024-05-09T04:40:35.960Z,101870.22
2024-05-09T04:43:14.295Z,101872.00
2024-05-09T04:45:41.557Z,101870.38
2024-05-09T04:48:09.288Z,101865.00
2024-05-09T04:50:38.824Z,101869.91
2024-05-09T04:53:08.660Z,101868.72
2024-05-09T04:55:37.256Z,101866.88
2024-05-09T04:58:04.924Z,101864.25
2024-05-09T05:00:36.926Z,101873.72
2024-05-09T05:03:10.283Z,101874.03
2024-05-09T05:05:42.880Z,101876.78
2024-05-09T05:08:18.631Z,101874.47
2024-05-09T05:10:47.081Z,101870.00
2024-05-09T05:13:22.237Z,101867.03
2024-05-09T05:15:56.063Z,101871.09
2024-05-09T05:18:24.259Z,101877.84
2024-05-09T05:20:51.894Z,101869.69
2024-05-09T05:23:20.256Z,101869.16
2024-05-09T05:25:48.812Z,101874.53
2024-05-09T05:28:17.427Z,101873.66
2024-05-09T05:30:44.265Z,101879.91
2024-05-09T05:33:13.094Z,101876.69
2024-05-09T05:35:41.236Z,101872.31
2024-05-09T05:38:08.688Z,101868.38
2024-05-09T05:40:40.522Z,101873.41
2024-05-09T05:43:09.880Z,101872.84
2024-05-09T05:45:37.465Z,101878.50
2024-05-09T05:48:06.379Z,101882.31
2024-05-09T05:50:36.884Z,101876.22
2024-05-09T05:53:07.506Z,101879.09
2024-05-09T05:55:36.373Z,101876.22
2024-05-09T05:58:03.610Z,101882.22
2024-05-09T06:00:37.862Z,101877.38
2024-05-09T06:03:10.748Z,101881.81
2024-05-09T06:05:43.340Z,101887.66
2024-05-09T06:08:10.858Z,101891.78
2024-05-09T06:10:40.170Z,101886.69
2024-05-09T06:13:12.568Z,101878.78
2024-05-09T06:15:40.379Z,101891.69
2024-05-09T06:18:09.078Z,101890.09
2024-05-09T06:20:38.106Z,101889.03
2024-05-09T06:23:06.939Z,101886.38
2024-05-09T06:25:34.518Z,101887.28
2024-05-09T06:28:01.654Z,101885.44
2024-05-09T06:30:37.117Z,101887.53
2024-05-09T06:33:09.379Z,101886.97
2024-05-09T06:35:37.250Z,101893.09
2024-05-09T06:38:04.661Z,101892.06
2024-05-09T06:40:37.787Z,101893.94
2024-05-09T06:43:14.463Z,101891.03
2024-05-09T06:45:41.799Z,101894.16
2024-05-09T06:48:09.236Z,101893.81
2024-05-09T06:50:38.435Z,101893.13
2024-05-09T06:53:07.475Z,101889.59
2024-05-09T06:55:34.358Z,101887.34
2024-05-09T06:58:01.092Z,101891.44
2024-05-09T07:00:35.469Z,101892.91
2024-05-09T07:03:16.402Z,101891.09
2024-05-09T07:05:47.249Z,101900.06
2024-05-09T07:08:15.381Z,101896.00
2024-05-09T07:10:42.830Z,101897.50
2024-05-09T07:13:10.561Z,101893.44
2024-05-09T07:15:37.845Z,101896.59
2024-05-09T07:18:18.211Z,101894.94
2024-05-09T07:20:48.045Z,101902.72
2024-05-09T07:23:16.435Z,101889.97
2024-05-09T07:25:43.660Z,101893.13
2024-05-09T07:28:13.476Z,101900.59
2024-05-09T07:30:41.425Z,101889.19
2024-05-09T07:33:08.519Z,101893.53
2024-05-09T07:35:35.459Z,101881.59
2024-05-09T07:38:02.268Z,101889.03
2024-05-09T07:40:35.571Z,101879.91
2024-05-09T07:43:04.698Z,101887.22
2024-05-09T07:45:48.125Z,101884.16
2024-05-09T07:53:39.183Z,101883.53
2024-05-09T07:56:09.995Z,101875.66
2024-05-09T07:58:37.983Z,101879.88
2024-05-09T08:01:05.099Z,101875.66
2024-05-09T08:03:32.460Z,101877.00
2024-05-09T08:05:59.381Z,101883.97
2024-05-09T08:08:26.301Z,101874.03
2024-05-09T08:10:53.384Z,101876.91
2024-05-09T08:13:20.356Z,101867.81
2024-05-09T08:15:47.250Z,101877.91
2024-05-09T08:18:13.912Z,101869.06
2024-05-09T08:20:41.888Z,101869.31
2024-05-09T08:23:09.128Z,101864.53
2024-05-09T08:25:36.673Z,101860.66
2024-05-09T08:28:04.816Z,101863.63
2024-05-09T08:30:36.753Z,101854.53
2024-05-09T08:33:06.766Z,101860.25
2024-05-09T08:35:34.855Z,101856.75
2024-05-09T08:38:02.988Z,101852.41
2024-05-09T08:40:35.647Z,101847.78
2024-05-09T08:43:11.049Z,101849.25
2024-05-09T08:45:43.136Z,101846.31
2024-05-09T08:48:12.896Z,101841.84
2024-05-09T08:50:41.207Z,101851.34
2024-05-09T08:53:08.863Z,101842.53
2024-05-09T08:55:40.173Z,101840.00
2024-05-09T08:58:14.276Z,101828.19
2024-05-09T09:00:43.015Z,101832.94
2024-05-09T09:03:14.715Z,101828.25
2024-05-09T09:05:51.115Z,101823.16
2024-05-09T09:08:18.577Z,101821.03
2024-05-09T09:10:47.578Z,101819.09
2024-05-09T09:13:15.493Z,101814.34
2024-05-09T09:15:49.941Z,101814.59
2024-05-09T09:18:18.298Z,101804.72
2024-05-09T09:20:45.618Z,101799.16
2024-05-09T09:23:12.525Z,101801.53
2024-05-09T09:25:40.577Z,101790.72
2024-05-09T09:28:08.477Z,101792.22
2024-05-09T09:30:45.935Z,101787.59
2024-05-09T09:33:13.427Z,101785.59
2024-05-09T09:35:40.648Z,101786.94
2024-05-09T09:38:08.163Z,101782.97
2024-05-09T09:40:40.983Z,101775.28
2024-05-09T09:43:18.241Z,101776.03
2024-05-09T09:45:47.973Z,101781.41
2024-05-09T09:48:16.275Z,101779.81
2024-05-09T09:50:43.375Z,101774.97
2024-05-09T09:53:12.614Z,101775.13
2024-05-09T09:55:40.162Z,101762.22
2024-05-09T09:58:09.555Z,101766.28
2024-05-09T10:00:39.300Z,101753.50
2024-05-09T10:03:06.749Z,101761.03
2024-05-09T10:05:34.450Z,101752.25
2024-05-09T10:08:06.524Z,101749.63
2024-05-09T10:10:35.650Z,101745.19
2024-05-09T10:13:04.147Z,101743.69
2024-05-09T10:15:42.861Z,101742.97
2024-05-09T10:18:10.003Z,101744.91
2024-05-09T10:20:44.290Z,101738.13
2024-05-09T10:23:28.287Z,101728.44
2024-05-09T10:26:03.777Z,101724.25
2024-05-09T10:28:32.795Z,101724.28
2024-05-09T10:31:10.530Z,101716.03
2024-05-09T10:33:52.472Z,101716.16
2024-05-09T10:36:26.583Z,101715.19
2024-05-09T10:38:54.709Z,101711.03
2024-05-09T10:41:23.383Z,101703.56
2024-05-09T10:43:51.172Z,101703.63
2024-05-09T10:46:21.729Z,101694.66
2024-05-09T10:48:48.887Z,101699.69
2024-05-09T10:51:19.352Z,101692.56
2024-05-09T10:53:48.024Z,101684.00
2024-05-09T10:56:15.077Z,101684.13
2024-05-09T10:58:41.953Z,101680.00
2024-05-09T11:01:10.380Z,101684.38
2024-05-09T11:03:38.259Z,101679.63
2024-05-09T11:06:06.526Z,101676.94
2024-05-09T11:08:34.767Z,101677.88
2024-05-09T11:11:06.746Z,101672.69
2024-05-09T11:13:36.060Z,101680.19
2024-05-09T11:16:03.865Z,101670.75
2024-05-09T11:18:35.486Z,101663.69
2024-05-09T11:21:12.595Z,101662.72
2024-05-09T11:23:40.202Z,101662.22
2024-05-09T11:26:07.428Z,101653.28
2024-05-09T11:28:34.154Z,101664.16
2024-05-09T11:31:10.276Z,101652.94
2024-05-09T11:33:38.737Z,101644.78
2024-05-09T11:36:06.702Z,101644.28
2024-05-09T11:38:33.816Z,101643.56
2024-05-09T11:41:02.064Z,101635.47
2024-05-09T11:43:28.871Z,101645.25
2024-05-09T11:45:57.596Z,101628.03
2024-05-09T11:48:25.783Z,101627.38
2024-05-09T11:50:54.337Z,101642.44
2024-05-09T11:53:20.983Z,101637.91
2024-05-09T11:55:49.667Z,101645.22
2024-05-09T11:58:18.039Z,101635.16
2024-05-09T12:00:45.839Z,101634.22
2024-05-09T12:03:13.228Z,101623.75
2024-05-09T12:05:40.408Z,101616.88
2024-05-09T12:08:07.590Z,101615.00
2024-05-09T12:10:36.198Z,101611.91
2024-05-09T12:13:06.181Z,101607.09
2024-05-09T12:15:37.447Z,101607.66
2024-05-09T12:18:06.254Z,101600.47
2024-05-09T12:20:37.665Z,101601.25
2024-05-09T12:23:08.399Z,101599.41
2024-05-09T12:25:36.734Z,101592.41
2024-05-09T12:28:05.926Z,101591.16
2024-05-09T12:30:37.497Z,101593.25
2024-05-09T12:33:12.537Z,101587.66
2024-05-09T12:35:43.232Z,101577.34
2024-05-09T12:38:12.182Z,101581.56
2024-05-09T12:40:39.724Z,101577.97
2024-05-09T12:43:09.588Z,101573.09
2024-05-09T12:45:37.912Z,101569.66
2024-05-09T12:48:08.386Z,101562.84
2024-05-09T12:50:35.820Z,101568.53
2024-05-09T12:53:04.218Z,101560.84
2024-05-09T12:55:40.347Z,101559.38
2024-05-09T12:58:16.388Z,101557.16
2024-05-09T13:00:44.243Z,101554.66
2024-05-09T13:03:11.449Z,101556.00
2024-05-09T13:05:41.361Z,101556.53
2024-05-09T13:08:08.961Z,101559.13
2024-05-09T13:10:36.870Z,101549.63
2024-05-09T13:13:03.854Z,101549.75
2024-05-09T13:15:31.629Z,101543.53
2024-05-09T13:18:02.636Z,101531.69
2024-05-09T13:20:34.300Z,101530.03
2024-05-09T13:23:03.937Z,101527.78
2024-05-09T13:25:30.884Z,101522.09
2024-05-09T13:27:57.860Z,101525.63
2024-05-09T13:30:33.632Z,101533.94
2024-05-09T13:33:07.021Z,101520.69
2024-05-09T13:35:35.789Z,101520.94
2024-05-09T13:38:03.698Z,101517.94
2024-05-09T13:40:34.462Z,101520.09
2024-05-09T13:43:06.061Z,101519.31
2024-05-09T13:45:33.618Z,101525.16
2024-05-09T13:48:02.581Z,101519.63
2024-05-09T13:50:35.736Z,101513.47
2024-05-09T13:53:06.449Z,101518.13
2024-05-09T13:55:34.905Z,101514.88
2024-05-09T13:58:02.034Z,101509.25
2024-05-09T14:00:41.825Z,101505.81
2024-05-09T14:03:14.592Z,101503.47
2024-05-09T14:05:41.936Z,101499.66
2024-05-09T14:08:09.690Z,101489.75
2024-05-09T14:10:43.209Z,101492.53
2024-05-09T14:13:12.369Z,101484.59
2024-05-09T14:15:39.493Z,101485.94
2024-05-09T14:18:10.346Z,101478.38
2024-05-09T14:20:39.284Z,101475.69
2024-05-09T14:23:06.473Z,101471.63
2024-05-09T14:25:36.593Z,101467.94
2024-05-09T14:28:06.383Z,101474.25
2024-05-09T14:30:37.426Z,101466.25
2024-05-09T14:33:06.769Z,101471.38
2024-05-09T14:35:34.934Z,101473.91
2024-05-09T14:38:03.102Z,101455.94
2024-05-09T14:40:40.336Z,101470.66
2024-05-09T14:43:14.743Z,101458.47
2024-05-09T14:45:43.389Z,101455.09
2024-05-09T14:48:11.839Z,101450.63
2024-05-09T14:50:40.429Z,101463.25
2024-05-09T14:53:09.454Z,101451.34
2024-05-09T14:55:37.825Z,101451.53
2024-05-09T14:58:12.574Z,101449.44
2024-05-09T15:00:46.164Z,101443.41
2024-05-09T15:03:21.374Z,101444.84
2024-05-09T15:05:50.530Z,101436.84
2024-05-09T15:08:19.483Z,101441.63
2024-05-09T15:10:46.700Z,101439.50
2024-05-09T15:13:16.422Z,101436.97
2024-05-09T15:15:44.315Z,101430.41
2024-05-09T15:18:11.745Z,101416.88
2024-05-09T15:23:07.536Z,101416.06
2024-05-09T15:25:36.303Z,101412.06
2024-05-09T15:28:07.363Z,101411.06
2024-05-09T15:30:35.238Z,101409.22
2024-05-09T15:33:06.703Z,101408.50
2024-05-09T15:35:35.362Z,101412.84
2024-05-09T15:38:03.245Z,101406.88
2024-05-09T15:40:37.658Z,101398.34
2024-05-09T15:43:07.922Z,101399.78
2024-05-09T15:45:35.587Z,101395.03
2024-05-09T15:48:03.472Z,101397.06
2024-05-09T15:50:37.440Z,101399.78
2024-05-09T15:53:09.577Z,101396.88
2024-05-09T15:55:37.101Z,101398.09
2024-05-09T15:58:05.377Z,101379.78
2024-05-09T16:00:38.685Z,101386.41
2024-05-09T16:03:10.975Z,101390.50
2024-05-09T16:05:38.717Z,101378.16
2024-05-09T16:08:07.232Z,101374.16
2024-05-09T16:10:35.121Z,101373.22
2024-05-09T16:13:03.873Z,101377.91
2024-05-09T16:15:31.564Z,101374.09
2024-05-09T16:17:59.273Z,101366.88
2024-05-09T16:20:34.714Z,101373.06
2024-05-09T16:23:07.563Z,101378.75
2024-05-09T16:25:34.653Z,101367.38
2024-05-09T16:28:05.768Z,101369.75
2024-05-09T16:30:36.030Z,101374.31
2024-05-09T16:33:05.115Z,101370.84
2024-05-09T16:35:32.917Z,101360.13
2024-05-09T16:38:02.170Z,101365.63
2024-05-09T16:40:36.596Z,101355.38
2024-05-09T16:43:07.180Z,101359.63
2024-05-09T16:45:34.296Z,101359.84
2024-05-09T16:48:01.640Z,101356.91
2024-05-09T16:50:33.001Z,101364.97
2024-05-09T16:53:02.671Z,101357.09
2024-05-09T16:55:29.635Z,101355.63
2024-05-09T16:57:57.374Z,101352.47
2024-05-09T17:00:35.940Z,101359.84
2024-05-09T17:03:09.622Z,101363.78
2024-05-09T17:05:37.112Z,101356.81
2024-05-09T17:08:04.540Z,101357.56
2024-05-09T17:10:34.164Z,101359.94
2024-05-09T17:13:04.038Z,101367.47
2024-05-09T17:15:32.315Z,101358.56
2024-05-09T17:18:01.287Z,101355.00
2024-05-09T17:20:33.240Z,101361.63
2024-05-09T17:23:03.720Z,101367.25
2024-05-09T17:25:32.678Z,101364.06
2024-05-09T17:28:06.392Z,101369.06
2024-05-09T17:30:36.604Z,101368.31
2024-05-09T17:33:06.491Z,101369.66
2024-05-09T17:35:34.442Z,101365.72
2024-05-09T17:38:01.716Z,101360.91
2024-05-09T17:40:34.949Z,101363.88
2024-05-09T17:43:05.044Z,101367.97
2024-05-09T17:45:32.780Z,101364.03
2024-05-09T17:48:00.148Z,101366.19
2024-05-09T17:50:34.752Z,101366.19
2024-05-09T17:53:04.045Z,101361.00
2024-05-09T17:55:30.760Z,101363.03
2024-05-09T17:57:57.706Z,101368.41
2024-05-09T18:00:36.219Z,101367.78
2024-05-09T18:03:07.404Z,101370.38
2024-05-09T18:05:38.052Z,101362.38
2024-05-09T18:08:08.671Z,101354.03
2024-05-09T18:10:38.641Z,101367.44
2024-05-09T18:13:10.933Z,101362.63
2024-05-09T18:15:39.027Z,101365.53
2024-05-09T18:18:07.559Z,101363.53
2024-05-09T18:20:42.163Z,101359.91
2024-05-09T18:23:17.191Z,101359.47
2024-05-09T18:25:45.285Z,101366.81
2024-05-09T18:28:12.180Z,101369.25
2024-05-09T18:30:40.381Z,101373.66
2024-05-09T18:33:10.872Z,101365.19
2024-05-09T18:35:37.985Z,101363.63
2024-05-09T18:38:05.485Z,101366.84
2024-05-09T18:40:36.135Z,101364.44
2024-05-09T18:43:07.339Z,101368.88
2024-05-09T18:45:36.578Z,101376.53
2024-05-09T18:48:06.040Z,101378.91
2024-05-09T18:50:37.573Z,101371.28
2024-05-09T18:53:06.958Z,101371.63
2024-05-09T18:55:33.990Z,101378.84
2024-05-09T18:58:01.046Z,101380.44
2024-05-09T19:00:34.528Z,101385.25
2024-05-09T19:03:08.097Z,101387.22
2024-05-09T19:05:36.409Z,101385.56
2024-05-09T19:08:03.664Z,101381.09
2024-05-09T19:10:34.408Z,101392.75
2024-05-09T19:13:08.004Z,101389.03
2024-05-09T19:15:38.608Z,101388.69
2024-05-09T19:18:07.178Z,101391.44
2024-05-09T19:20:35.990Z,101393.78
2024-05-09T19:23:04.829Z,101390.09
2024-05-09T19:25:32.752Z,101396.06
2024-05-09T19:28:00.894Z,101393.03
2024-05-09T19:30:37.659Z,101397.72
2024-05-09T19:33:08.568Z,101399.19
2024-05-09T19:35:35.776Z,101413.56
2024-05-09T19:38:02.799Z,101406.34
2024-05-09T19:40:32.547Z,101412.22
2024-05-09T19:43:02.473Z,101423.34
2024-05-09T19:45:30.149Z,101430.94
2024-05-09T19:47:57.261Z,101429.63
2024-05-09T19:50:32.431Z,101423.94
2024-05-09T19:53:07.528Z,101429.16
2024-05-09T19:55:34.783Z,101423.44
2024-05-09T19:58:06.872Z,101429.72
2024-05-09T20:00:39.345Z,101423.63
2024-05-09T20:03:09.278Z,101428.78
2024-05-09T20:05:37.400Z,101429.91
2024-05-09T20:08:05.182Z,101430.31
2024-05-09T20:10:34.191Z,101437.34
2024-05-09T20:13:03.806Z,101438.19
2024-05-09T20:15:31.944Z,101440.44
2024-05-09T20:17:58.727Z,101448.44
2024-05-09T20:20:33.755Z,101446.09
2024-05-09T20:23:06.302Z,101449.91
2024-05-09T20:25:33.159Z,101448.13
2024-05-09T20:28:01.373Z,101455.25
2024-05-09T20:30:32.691Z,101449.28
2024-05-09T20:33:07.025Z,101451.56
2024-05-09T20:35:35.351Z,101452.00
2024-05-09T20:38:03.220Z,101450.75
2024-05-09T20:40:34.980Z,101454.34
2024-05-09T20:43:05.988Z,101450.69
2024-05-09T20:45:33.696Z,101445.41
2024-05-09T20:48:00.766Z,101452.06
2024-05-09T20:50:36.609Z,101453.66
2024-05-09T20:53:13.057Z,101449.59
2024-05-09T20:55:41.174Z,101451.53
2024-05-09T20:58:08.850Z,101446.16
2024-05-09T21:00:40.234Z,101444.38
2024-05-09T21:03:11.407Z,101444.31
2024-05-09T21:05:39.084Z,101438.97
2024-05-09T21:08:06.822Z,101442.91
2024-05-09T21:10:35.134Z,101438.47
2024-05-09T21:13:03.279Z,101441.34
2024-05-09T21:15:31.069Z,101447.28
2024-05-09T21:17:57.854Z,101445.88
2024-05-09T21:20:30.977Z,101458.56
2024-05-09T21:22:59.359Z,101455.09
2024-05-09T21:25:26.270Z,101451.19
2024-05-09T21:27:53.173Z,101456.00
2024-05-09T21:30:31.631Z,101456.69
2024-05-09T21:33:08.313Z,101454.47
2024-05-09T21:35:35.629Z,101461.53
2024-05-09T21:38:02.460Z,101463.16
2024-05-09T21:40:34.300Z,101461.75
2024-05-09T21:43:03.298Z,101452.84
2024-05-09T21:45:30.208Z,101457.72
2024-05-09T21:47:57.494Z,101453.81
2024-05-09T21:50:32.222Z,101459.19
2024-05-09T21:53:06.140Z,101463.88
2024-05-09T21:55:33.022Z,101470.97
2024-05-09T21:58:00.307Z,101457.41
2024-05-09T22:00:34.710Z,101462.00
2024-05-09T22:03:04.874Z,101456.75
2024-05-09T22:05:31.994Z,101453.44
2024-05-09T22:07:59.220Z,101452.38
2024-05-09T22:10:31.159Z,101448.88
2024-05-09T22:13:01.859Z,101449.00
2024-05-09T22:15:28.966Z,101461.53
2024-05-09T22:17:57.388Z,101461.56
2024-05-09T22:20:34.128Z,101448.88
2024-05-09T22:23:04.604Z,101451.84
2024-05-09T22:25:32.316Z,101456.53
2024-05-09T22:28:01.233Z,101460.78
2024-05-09T22:30:35.656Z,101454.84
2024-05-09T22:33:08.031Z,101468.19
2024-05-09T22:35:35.223Z,101452.84
2024-05-09T22:38:04.799Z,101462.22
2024-05-09T22:40:42.147Z,101449.03
2024-05-09T22:43:18.413Z,101455.31
2024-05-09T22:45:46.739Z,101461.16
2024-05-09T22:48:13.679Z,101466.56
2024-05-09T22:50:41.315Z,101463.78
2024-05-09T22:53:08.032Z,101461.44
2024-05-09T22:55:34.702Z,101459.91
2024-05-09T22:58:01.636Z,101469.03
2024-05-09T23:00:31.810Z,101448.84
2024-05-09T23:03:00.956Z,101454.41
2024-05-09T23:05:28.321Z,101454.78
2024-05-09T23:07:55.976Z,101460.63
2024-05-09T23:10:30.897Z,101464.16
2024-05-09T23:13:01.940Z,101466.50
2024-05-09T23:15:28.838Z,101465.41
2024-05-09T23:17:55.624Z,101469.13
2024-05-09T23:20:33.393Z,101468.28
2024-05-09T23:23:05.537Z,101469.78
2024-05-09T23:25:32.462Z,101472.97
2024-05-09T23:27:59.834Z,101477.56
2024-05-09T23:30:37.028Z,101472.34
2024-05-09T23:33:07.422Z,101470.31
2024-05-09T23:35:34.418Z,101473.75
2024-05-09T23:38:01.342Z,101469.75
2024-05-09T23:40:37.608Z,101469.25
2024-05-09T23:43:08.197Z,101467.97
2024-05-09T23:45:35.312Z,101473.78
2024-05-09T23:48:02.632Z,101461.56
2024-05-09T23:50:35.078Z,101459.66
2024-05-09T23:53:06.682Z,101463.13
2024-05-09T23:55:34.365Z,101457.91
2024-05-09T23:58:01.147Z,101461.59
